sensor_id;sensor_type;location;lat;lon;timestamp;P1;durP1;ratioP1;P2;durP2;ratioP2
68583;SDS011;55557;49.220;11.150;2024-01-30T00:01:22;11.17;;;6.77;;
68583;SDS011;55557;49.220;11.150;2024-01-30T00:03:48;11.33;;;7.03;;
68583;SDS011;55557;49.220;11.150;2024-01-30T00:06:18;7.27;;;5.43;;
68583;SDS011;55557;49.220;11.150;2024-01-30T00:08:46;8.97;;;6.33;;
68583;SDS011;55557;49.220;11.150;2024-01-30T00:11:14;8.10;;;5.67;;
68583;SDS011;55557;49.220;11.150;2024-01-30T00:13:42;9.70;;;5.77;;
68583;SDS011;55557;49.220;11.150;2024-01-30T00:16:08;7.60;;;5.70;;
68583;SDS011;55557;49.220;11.150;2024-01-30T00:18:35;6.80;;;5.10;;
68583;SDS011;55557;49.220;11.150;2024-01-30T00:21:01;8.47;;;5.57;;
68583;SDS011;55557;49.220;11.150;2024-01-30T00:23:28;7.73;;;4.90;;
68583;SDS011;55557;49.220;11.150;2024-01-30T00:25:54;11.47;;;5.17;;
68583;SDS011;55557;49.220;11.150;2024-01-30T00:28:20;7.27;;;5.00;;
68583;SDS011;55557;49.220;11.150;2024-01-30T00:30:46;8.67;;;5.57;;
68583;SDS011;55557;49.220;11.150;2024-01-30T00:33:13;10.33;;;6.10;;
68583;SDS011;55557;49.220;11.150;2024-01-30T00:35:41;9.57;;;5.73;;
68583;SDS011;55557;49.220;11.150;2024-01-30T00:38:07;8.00;;;5.83;;
68583;SDS011;55557;49.220;11.150;2024-01-30T00:40:33;6.57;;;4.93;;
68583;SDS011;55557;49.220;11.150;2024-01-30T00:42:59;6.53;;;4.57;;
68583;SDS011;55557;49.220;11.150;2024-01-30T00:45:25;8.17;;;5.00;;
68583;SDS011;55557;49.220;11.150;2024-01-30T00:47:51;10.47;;;5.20;;
68583;SDS011;55557;49.220;11.150;2024-01-30T00:50:17;8.33;;;5.00;;
68583;SDS011;55557;49.220;11.150;2024-01-30T00:52:43;6.70;;;4.97;;
68583;SDS011;55557;49.220;11.150;2024-01-30T00:55:10;9.13;;;5.73;;
68583;SDS011;55557;49.220;11.150;2024-01-30T00:57:36;8.90;;;5.47;;
68583;SDS011;55557;49.220;11.150;2024-01-30T01:00:02;8.43;;;5.77;;
68583;SDS011;55557;49.220;11.150;2024-01-30T01:02:31;9.03;;;5.80;;
68583;SDS011;55557;49.220;11.150;2024-01-30T01:04:57;11.20;;;6.43;;
68583;SDS011;55557;49.220;11.150;2024-01-30T01:07:23;10.17;;;6.50;;
68583;SDS011;55557;49.220;11.150;2024-01-30T01:09:49;9.53;;;6.70;;
68583;SDS011;55557;49.220;11.150;2024-01-30T01:12:15;8.23;;;5.93;;
68583;SDS011;55557;49.220;11.150;2024-01-30T01:14:41;7.00;;;5.20;;
68583;SDS011;55557;49.220;11.150;2024-01-30T01:17:07;8.83;;;5.27;;
68583;SDS011;55557;49.220;11.150;2024-01-30T01:19:33;8.73;;;5.23;;
68583;SDS011;55557;49.220;11.150;2024-01-30T01:21:59;10.47;;;5.37;;
68583;SDS011;55557;49.220;11.150;2024-01-30T01:24:25;7.67;;;5.37;;
68583;SDS011;55557;49.220;11.150;2024-01-30T01:26:51;11.33;;;5.77;;
68583;SDS011;55557;49.220;11.150;2024-01-30T01:29:17;6.53;;;5.27;;
68583;SDS011;55557;49.220;11.150;2024-01-30T01:31:43;7.07;;;5.40;;
68583;SDS011;55557;49.220;11.150;2024-01-30T01:34:10;9.20;;;5.50;;
68583;SDS011;55557;49.220;11.150;2024-01-30T01:36:36;7.70;;;5.30;;
68583;SDS011;55557;49.220;11.150;2024-01-30T01:39:03;10.07;;;5.63;;
68583;SDS011;55557;49.220;11.150;2024-01-30T01:41:32;8.40;;;5.77;;
68583;SDS011;55557;49.220;11.150;2024-01-30T01:43:58;8.50;;;5.50;;
68583;SDS011;55557;49.220;11.150;2024-01-30T01:46:26;13.20;;;6.47;;
68583;SDS011;55557;49.220;11.150;2024-01-30T01:48:52;9.33;;;5.87;;
68583;SDS011;55557;49.220;11.150;2024-01-30T01:51:18;10.20;;;6.00;;
68583;SDS011;55557;49.220;11.150;2024-01-30T01:53:44;6.70;;;5.50;;
68583;SDS011;55557;49.220;11.150;2024-01-30T01:56:10;10.80;;;6.47;;
68583;SDS011;55557;49.220;11.150;2024-01-30T01:58:37;9.87;;;6.23;;
68583;SDS011;55557;49.220;11.150;2024-01-30T02:01:03;10.77;;;6.70;;
68583;SDS011;55557;49.220;11.150;2024-01-30T02:03:30;8.37;;;5.83;;
68583;SDS011;55557;49.220;11.150;2024-01-30T02:05:56;10.63;;;5.83;;
68583;SDS011;55557;49.220;11.150;2024-01-30T02:08:25;7.80;;;5.30;;
68583;SDS011;55557;49.220;11.150;2024-01-30T02:10:51;9.17;;;5.67;;
68583;SDS011;55557;49.220;11.150;2024-01-30T02:13:17;10.80;;;6.43;;
68583;SDS011;55557;49.220;11.150;2024-01-30T02:15:44;9.37;;;5.83;;
68583;SDS011;55557;49.220;11.150;2024-01-30T02:18:14;9.60;;;4.70;;
68583;SDS011;55557;49.220;11.150;2024-01-30T02:20:40;9.27;;;5.20;;
68583;SDS011;55557;49.220;11.150;2024-01-30T02:23:06;9.87;;;5.43;;
68583;SDS011;55557;49.220;11.150;2024-01-30T02:25:38;9.33;;;5.80;;
68583;SDS011;55557;49.220;11.150;2024-01-30T02:28:09;8.13;;;4.93;;
68583;SDS011;55557;49.220;11.150;2024-01-30T02:30:35;6.83;;;5.27;;
68583;SDS011;55557;49.220;11.150;2024-01-30T02:33:01;6.97;;;4.97;;
68583;SDS011;55557;49.220;11.150;2024-01-30T02:35:27;9.40;;;5.03;;
68583;SDS011;55557;49.220;11.150;2024-01-30T02:37:53;10.47;;;5.90;;
68583;SDS011;55557;49.220;11.150;2024-01-30T02:40:19;12.70;;;5.87;;
68583;SDS011;55557;49.220;11.150;2024-01-30T02:42:45;10.17;;;6.03;;
68583;SDS011;55557;49.220;11.150;2024-01-30T02:45:11;7.97;;;5.57;;
68583;SDS011;55557;49.220;11.150;2024-01-30T02:47:38;11.20;;;5.87;;
68583;SDS011;55557;49.220;11.150;2024-01-30T02:50:04;9.57;;;5.97;;
68583;SDS011;55557;49.220;11.150;2024-01-30T02:52:30;7.77;;;5.80;;
68583;SDS011;55557;49.220;11.150;2024-01-30T02:54:56;10.30;;;5.70;;
68583;SDS011;55557;49.220;11.150;2024-01-30T02:57:22;11.80;;;5.40;;
68583;SDS011;55557;49.220;11.150;2024-01-30T02:59:48;10.23;;;5.67;;
68583;SDS011;55557;49.220;11.150;2024-01-30T03:02:14;8.17;;;5.17;;
68583;SDS011;55557;49.220;11.150;2024-01-30T03:04:41;9.07;;;5.57;;
68583;SDS011;55557;49.220;11.150;2024-01-30T03:07:07;12.30;;;5.37;;
68583;SDS011;55557;49.220;11.150;2024-01-30T03:09:33;8.27;;;5.43;;
68583;SDS011;55557;49.220;11.150;2024-01-30T03:11:59;7.27;;;4.87;;
68583;SDS011;55557;49.220;11.150;2024-01-30T03:14:25;6.50;;;4.93;;
68583;SDS011;55557;49.220;11.150;2024-01-30T03:16:52;6.53;;;5.10;;
68583;SDS011;55557;49.220;11.150;2024-01-30T03:19:18;6.07;;;5.13;;
68583;SDS011;55557;49.220;11.150;2024-01-30T03:21:44;8.73;;;5.20;;
68583;SDS011;55557;49.220;11.150;2024-01-30T03:24:10;14.17;;;5.67;;
68583;SDS011;55557;49.220;11.150;2024-01-30T03:26:36;11.20;;;4.80;;
68583;SDS011;55557;49.220;11.150;2024-01-30T03:29:02;5.80;;;5.13;;
68583;SDS011;55557;49.220;11.150;2024-01-30T03:31:28;8.20;;;5.47;;
68583;SDS011;55557;49.220;11.150;2024-01-30T03:33:54;9.07;;;4.67;;
68583;SDS011;55557;49.220;11.150;2024-01-30T03:36:20;10.03;;;5.30;;
68583;SDS011;55557;49.220;11.150;2024-01-30T03:38:46;9.43;;;5.33;;
68583;SDS011;55557;49.220;11.150;2024-01-30T03:41:12;8.23;;;4.93;;
68583;SDS011;55557;49.220;11.150;2024-01-30T03:43:38;8.33;;;5.00;;
68583;SDS011;55557;49.220;11.150;2024-01-30T03:46:04;9.10;;;5.03;;
68583;SDS011;55557;49.220;11.150;2024-01-30T03:48:30;7.53;;;5.17;;
68583;SDS011;55557;49.220;11.150;2024-01-30T03:50:56;9.40;;;5.07;;
68583;SDS011;55557;49.220;11.150;2024-01-30T03:53:22;7.53;;;5.17;;
68583;SDS011;55557;49.220;11.150;2024-01-30T03:55:48;7.37;;;4.57;;
68583;SDS011;55557;49.220;11.150;2024-01-30T03:58:14;8.73;;;5.43;;
68583;SDS011;55557;49.220;11.150;2024-01-30T04:00:40;10.30;;;5.07;;
68583;SDS011;55557;49.220;11.150;2024-01-30T04:03:06;11.03;;;5.90;;
68583;SDS011;55557;49.220;11.150;2024-01-30T04:05:35;8.60;;;5.40;;
68583;SDS011;55557;49.220;11.150;2024-01-30T04:08:01;7.77;;;5.20;;
68583;SDS011;55557;49.220;11.150;2024-01-30T04:10:27;14.70;;;8.10;;
68583;SDS011;55557;49.220;11.150;2024-01-30T04:12:53;10.93;;;6.77;;
68583;SDS011;55557;49.220;11.150;2024-01-30T04:15:19;19.07;;;11.13;;
68583;SDS011;55557;49.220;11.150;2024-01-30T04:17:45;30.90;;;14.57;;
68583;SDS011;55557;49.220;11.150;2024-01-30T04:20:14;20.87;;;10.30;;
68583;SDS011;55557;49.220;11.150;2024-01-30T04:22:42;19.87;;;10.13;;
68583;SDS011;55557;49.220;11.150;2024-01-30T04:25:09;11.47;;;7.40;;
68583;SDS011;55557;49.220;11.150;2024-01-30T04:27:35;11.00;;;7.17;;
68583;SDS011;55557;49.220;11.150;2024-01-30T04:30:01;13.27;;;7.40;;
68583;SDS011;55557;49.220;11.150;2024-01-30T04:32:27;13.93;;;7.83;;
68583;SDS011;55557;49.220;11.150;2024-01-30T04:34:53;10.60;;;5.90;;
68583;SDS011;55557;49.220;11.150;2024-01-30T04:37:19;9.20;;;5.77;;
68583;SDS011;55557;49.220;11.150;2024-01-30T04:39:45;8.93;;;5.30;;
68583;SDS011;55557;49.220;11.150;2024-01-30T04:42:11;8.40;;;5.57;;
68583;SDS011;55557;49.220;11.150;2024-01-30T04:44:37;10.43;;;5.80;;
68583;SDS011;55557;49.220;11.150;2024-01-30T04:47:03;7.53;;;5.23;;
68583;SDS011;55557;49.220;11.150;2024-01-30T04:49:31;10.10;;;6.03;;
68583;SDS011;55557;49.220;11.150;2024-01-30T04:51:57;7.07;;;5.80;;
68583;SDS011;55557;49.220;11.150;2024-01-30T04:54:23;8.73;;;5.20;;
68583;SDS011;55557;49.220;11.150;2024-01-30T04:56:49;7.43;;;5.40;;
68583;SDS011;55557;49.220;11.150;2024-01-30T04:59:15;8.93;;;5.37;;
68583;SDS011;55557;49.220;11.150;2024-01-30T05:01:42;7.97;;;5.30;;
68583;SDS011;55557;49.220;11.150;2024-01-30T05:04:08;7.03;;;5.23;;
68583;SDS011;55557;49.220;11.150;2024-01-30T05:06:34;11.80;;;6.07;;
68583;SDS011;55557;49.220;11.150;2024-01-30T05:09:00;8.07;;;5.93;;
68583;SDS011;55557;49.220;11.150;2024-01-30T05:11:26;6.40;;;4.60;;
68583;SDS011;55557;49.220;11.150;2024-01-30T05:13:52;8.97;;;5.40;;
68583;SDS011;55557;49.220;11.150;2024-01-30T05:16:18;9.23;;;6.07;;
68583;SDS011;55557;49.220;11.150;2024-01-30T05:18:44;7.77;;;4.87;;
68583;SDS011;55557;49.220;11.150;2024-01-30T05:21:10;7.83;;;5.70;;
68583;SDS011;55557;49.220;11.150;2024-01-30T05:23:37;10.90;;;5.43;;
68583;SDS011;55557;49.220;11.150;2024-01-30T05:26:03;9.17;;;5.80;;
68583;SDS011;55557;49.220;11.150;2024-01-30T05:28:29;7.53;;;5.60;;
68583;SDS011;55557;49.220;11.150;2024-01-30T05:30:55;9.43;;;5.53;;
68583;SDS011;55557;49.220;11.150;2024-01-30T05:33:21;7.13;;;5.40;;
68583;SDS011;55557;49.220;11.150;2024-01-30T05:35:47;7.00;;;5.60;;
68583;SDS011;55557;49.220;11.150;2024-01-30T05:38:14;8.03;;;5.83;;
68583;SDS011;55557;49.220;11.150;2024-01-30T05:40:40;8.53;;;5.77;;
68583;SDS011;55557;49.220;11.150;2024-01-30T05:43:06;6.50;;;4.97;;
68583;SDS011;55557;49.220;11.150;2024-01-30T05:45:33;7.87;;;5.33;;
68583;SDS011;55557;49.220;11.150;2024-01-30T05:48:00;9.60;;;5.43;;
68583;SDS011;55557;49.220;11.150;2024-01-30T05:50:26;10.03;;;6.30;;
68583;SDS011;55557;49.220;11.150;2024-01-30T05:52:53;9.57;;;6.30;;
68583;SDS011;55557;49.220;11.150;2024-01-30T05:55:19;11.67;;;7.20;;
68583;SDS011;55557;49.220;11.150;2024-01-30T05:57:45;17.60;;;8.23;;
68583;SDS011;55557;49.220;11.150;2024-01-30T06:00:11;11.20;;;8.70;;
68583;SDS011;55557;49.220;11.150;2024-01-30T06:02:37;18.53;;;10.03;;
68583;SDS011;55557;49.220;11.150;2024-01-30T06:05:04;17.33;;;9.63;;
68583;SDS011;55557;49.220;11.150;2024-01-30T06:07:30;15.67;;;8.93;;
68583;SDS011;55557;49.220;11.150;2024-01-30T06:09:56;10.93;;;7.53;;
68583;SDS011;55557;49.220;11.150;2024-01-30T06:12:22;12.23;;;7.60;;
68583;SDS011;55557;49.220;11.150;2024-01-30T06:14:48;11.10;;;7.43;;
68583;SDS011;55557;49.220;11.150;2024-01-30T06:17:14;11.27;;;7.43;;
68583;SDS011;55557;49.220;11.150;2024-01-30T06:19:40;11.00;;;7.63;;
68583;SDS011;55557;49.220;11.150;2024-01-30T06:22:06;12.50;;;7.40;;
68583;SDS011;55557;49.220;11.150;2024-01-30T06:24:32;10.77;;;7.37;;
68583;SDS011;55557;49.220;11.150;2024-01-30T06:26:59;15.17;;;8.00;;
68583;SDS011;55557;49.220;11.150;2024-01-30T06:29:26;9.17;;;6.33;;
68583;SDS011;55557;49.220;11.150;2024-01-30T06:31:52;10.73;;;6.97;;
68583;SDS011;55557;49.220;11.150;2024-01-30T06:34:18;13.30;;;6.80;;
68583;SDS011;55557;49.220;11.150;2024-01-30T06:36:44;9.57;;;6.10;;
68583;SDS011;55557;49.220;11.150;2024-01-30T06:39:10;9.37;;;7.00;;
68583;SDS011;55557;49.220;11.150;2024-01-30T06:41:36;12.93;;;6.93;;
68583;SDS011;55557;49.220;11.150;2024-01-30T06:44:02;11.03;;;7.23;;
68583;SDS011;55557;49.220;11.150;2024-01-30T06:46:33;14.40;;;7.60;;
68583;SDS011;55557;49.220;11.150;2024-01-30T06:48:59;13.67;;;8.40;;
68583;SDS011;55557;49.220;11.150;2024-01-30T06:51:25;11.17;;;7.50;;
68583;SDS011;55557;49.220;11.150;2024-01-30T06:53:51;10.03;;;7.07;;
68583;SDS011;55557;49.220;11.150;2024-01-30T06:56:17;14.80;;;8.27;;
68583;SDS011;55557;49.220;11.150;2024-01-30T06:58:48;13.20;;;8.00;;
68583;SDS011;55557;49.220;11.150;2024-01-30T07:01:15;11.97;;;7.97;;
68583;SDS011;55557;49.220;11.150;2024-01-30T07:03:41;12.00;;;9.03;;
68583;SDS011;55557;49.220;11.150;2024-01-30T07:06:07;9.60;;;7.43;;
68583;SDS011;55557;49.220;11.150;2024-01-30T07:08:33;12.80;;;8.77;;
68583;SDS011;55557;49.220;11.150;2024-01-30T07:10:59;14.30;;;8.47;;
68583;SDS011;55557;49.220;11.150;2024-01-30T07:13:26;18.87;;;8.40;;
68583;SDS011;55557;49.220;11.150;2024-01-30T07:15:52;15.60;;;9.33;;
68583;SDS011;55557;49.220;11.150;2024-01-30T07:18:18;13.60;;;9.20;;
68583;SDS011;55557;49.220;11.150;2024-01-30T07:20:44;18.13;;;9.83;;
68583;SDS011;55557;49.220;11.150;2024-01-30T07:23:14;21.23;;;11.50;;
68583;SDS011;55557;49.220;11.150;2024-01-30T07:25:42;22.03;;;11.70;;
68583;SDS011;55557;49.220;11.150;2024-01-30T07:28:08;20.00;;;11.27;;
68583;SDS011;55557;49.220;11.150;2024-01-30T07:30:35;14.57;;;10.00;;
68583;SDS011;55557;49.220;11.150;2024-01-30T07:33:02;18.13;;;10.57;;
68583;SDS011;55557;49.220;11.150;2024-01-30T07:35:28;15.80;;;9.27;;
68583;SDS011;55557;49.220;11.150;2024-01-30T07:37:54;13.20;;;8.87;;
68583;SDS011;55557;49.220;11.150;2024-01-30T07:40:20;15.87;;;10.30;;
68583;SDS011;55557;49.220;11.150;2024-01-30T07:42:47;16.93;;;10.03;;
68583;SDS011;55557;49.220;11.150;2024-01-30T07:45:14;15.13;;;9.97;;
68583;SDS011;55557;49.220;11.150;2024-01-30T07:47:40;22.13;;;12.23;;
68583;SDS011;55557;49.220;11.150;2024-01-30T07:50:07;27.27;;;15.03;;
68583;SDS011;55557;49.220;11.150;2024-01-30T07:52:33;33.07;;;17.37;;
68583;SDS011;55557;49.220;11.150;2024-01-30T07:54:59;29.80;;;15.70;;
68583;SDS011;55557;49.220;11.150;2024-01-30T07:57:28;19.93;;;12.50;;
68583;SDS011;55557;49.220;11.150;2024-01-30T07:59:54;21.40;;;12.77;;
68583;SDS011;55557;49.220;11.150;2024-01-30T08:02:22;22.63;;;11.27;;
68583;SDS011;55557;49.220;11.150;2024-01-30T08:04:48;20.70;;;13.27;;
68583;SDS011;55557;49.220;11.150;2024-01-30T08:07:15;25.03;;;15.93;;
68583;SDS011;55557;49.220;11.150;2024-01-30T08:09:42;21.30;;;14.67;;
68583;SDS011;55557;49.220;11.150;2024-01-30T08:12:08;24.17;;;13.47;;
68583;SDS011;55557;49.220;11.150;2024-01-30T08:14:34;23.03;;;13.00;;
68583;SDS011;55557;49.220;11.150;2024-01-30T08:17:00;18.97;;;12.27;;
68583;SDS011;55557;49.220;11.150;2024-01-30T08:19:26;20.37;;;13.73;;
68583;SDS011;55557;49.220;11.150;2024-01-30T08:21:52;26.97;;;13.20;;
68583;SDS011;55557;49.220;11.150;2024-01-30T08:24:18;20.50;;;12.33;;
68583;SDS011;55557;49.220;11.150;2024-01-30T08:26:44;17.97;;;11.60;;
68583;SDS011;55557;49.220;11.150;2024-01-30T08:29:10;18.67;;;11.67;;
68583;SDS011;55557;49.220;11.150;2024-01-30T08:31:36;17.40;;;10.87;;
68583;SDS011;55557;49.220;11.150;2024-01-30T08:34:02;16.63;;;10.53;;
68583;SDS011;55557;49.220;11.150;2024-01-30T08:36:28;18.87;;;10.73;;
68583;SDS011;55557;49.220;11.150;2024-01-30T08:38:54;19.90;;;11.63;;
68583;SDS011;55557;49.220;11.150;2024-01-30T08:41:20;21.10;;;11.27;;
68583;SDS011;55557;49.220;11.150;2024-01-30T08:43:46;19.03;;;12.20;;
68583;SDS011;55557;49.220;11.150;2024-01-30T08:46:12;31.57;;;13.60;;
68583;SDS011;55557;49.220;11.150;2024-01-30T08:48:38;17.60;;;11.33;;
68583;SDS011;55557;49.220;11.150;2024-01-30T08:51:04;18.50;;;11.30;;
68583;SDS011;55557;49.220;11.150;2024-01-30T08:53:33;20.13;;;11.00;;
68583;SDS011;55557;49.220;11.150;2024-01-30T08:55:59;17.70;;;11.33;;
68583;SDS011;55557;49.220;11.150;2024-01-30T08:58:25;20.57;;;11.90;;
68583;SDS011;55557;49.220;11.150;2024-01-30T09:00:51;19.33;;;11.93;;
68583;SDS011;55557;49.220;11.150;2024-01-30T09:03:17;18.47;;;11.30;;
68583;SDS011;55557;49.220;11.150;2024-01-30T09:05:44;17.43;;;11.70;;
68583;SDS011;55557;49.220;11.150;2024-01-30T09:08:10;18.20;;;11.47;;
68583;SDS011;55557;49.220;11.150;2024-01-30T09:10:36;18.70;;;11.23;;
68583;SDS011;55557;49.220;11.150;2024-01-30T09:13:02;18.20;;;10.97;;
68583;SDS011;55557;49.220;11.150;2024-01-30T09:15:28;18.20;;;11.73;;
68583;SDS011;55557;49.220;11.150;2024-01-30T09:17:54;18.83;;;11.47;;
68583;SDS011;55557;49.220;11.150;2024-01-30T09:20:20;20.97;;;12.63;;
68583;SDS011;55557;49.220;11.150;2024-01-30T09:22:47;17.77;;;12.07;;
68583;SDS011;55557;49.220;11.150;2024-01-30T09:25:14;19.57;;;12.20;;
68583;SDS011;55557;49.220;11.150;2024-01-30T09:27:40;22.67;;;12.07;;
68583;SDS011;55557;49.220;11.150;2024-01-30T09:30:06;24.67;;;12.53;;
68583;SDS011;55557;49.220;11.150;2024-01-30T09:32:32;18.10;;;11.67;;
68583;SDS011;55557;49.220;11.150;2024-01-30T09:34:58;15.73;;;10.77;;
68583;SDS011;55557;49.220;11.150;2024-01-30T09:37:25;18.97;;;11.80;;
68583;SDS011;55557;49.220;11.150;2024-01-30T09:39:51;15.70;;;10.93;;
68583;SDS011;55557;49.220;11.150;2024-01-30T09:44:46;14.57;;;10.90;;
68583;SDS011;55557;49.220;11.150;2024-01-30T09:47:12;23.23;;;11.23;;
68583;SDS011;55557;49.220;11.150;2024-01-30T09:49:40;18.13;;;11.07;;
68583;SDS011;55557;49.220;11.150;2024-01-30T09:52:07;19.30;;;12.17;;
68583;SDS011;55557;49.220;11.150;2024-01-30T09:54:33;19.43;;;12.07;;
68583;SDS011;55557;49.220;11.150;2024-01-30T09:56:59;20.50;;;12.10;;
68583;SDS011;55557;49.220;11.150;2024-01-30T09:59:25;15.63;;;10.63;;
68583;SDS011;55557;49.220;11.150;2024-01-30T10:01:51;19.87;;;11.73;;
68583;SDS011;55557;49.220;11.150;2024-01-30T10:04:18;19.33;;;11.47;;
68583;SDS011;55557;49.220;11.150;2024-01-30T10:06:44;17.27;;;11.47;;
68583;SDS011;55557;49.220;11.150;2024-01-30T10:09:10;20.83;;;10.97;;
68583;SDS011;55557;49.220;11.150;2024-01-30T10:11:36;19.87;;;11.60;;
68583;SDS011;55557;49.220;11.150;2024-01-30T10:14:02;18.40;;;10.80;;
68583;SDS011;55557;49.220;11.150;2024-01-30T10:16:28;20.90;;;10.90;;
68583;SDS011;55557;49.220;11.150;2024-01-30T10:18:54;16.80;;;10.57;;
68583;SDS011;55557;49.220;11.150;2024-01-30T10:21:20;19.33;;;11.17;;
68583;SDS011;55557;49.220;11.150;2024-01-30T10:23:46;17.63;;;11.00;;
68583;SDS011;55557;49.220;11.150;2024-01-30T10:26:12;17.93;;;10.73;;
68583;SDS011;55557;49.220;11.150;2024-01-30T10:28:38;18.37;;;11.67;;
68583;SDS011;55557;49.220;11.150;2024-01-30T10:31:04;16.60;;;10.87;;
68583;SDS011;55557;49.220;11.150;2024-01-30T10:33:31;19.47;;;11.13;;
68583;SDS011;55557;49.220;11.150;2024-01-30T10:36:06;17.03;;;10.37;;
68583;SDS011;55557;49.220;11.150;2024-01-30T10:38:32;16.00;;;10.17;;
68583;SDS011;55557;49.220;11.150;2024-01-30T10:41:02;14.90;;;9.83;;
68583;SDS011;55557;49.220;11.150;2024-01-30T10:43:32;17.90;;;10.30;;
68583;SDS011;55557;49.220;11.150;2024-01-30T10:46:08;18.10;;;9.97;;
68583;SDS011;55557;49.220;11.150;2024-01-30T10:48:37;15.97;;;10.70;;
68583;SDS011;55557;49.220;11.150;2024-01-30T10:51:07;21.93;;;11.23;;
68583;SDS011;55557;49.220;11.150;2024-01-30T10:53:33;17.03;;;9.97;;
68583;SDS011;55557;49.220;11.150;2024-01-30T10:56:00;19.80;;;10.37;;
68583;SDS011;55557;49.220;11.150;2024-01-30T10:58:26;19.77;;;10.90;;
68583;SDS011;55557;49.220;11.150;2024-01-30T11:00:53;24.80;;;11.57;;
68583;SDS011;55557;49.220;11.150;2024-01-30T11:03:20;30.60;;;10.83;;
68583;SDS011;55557;49.220;11.150;2024-01-30T11:05:49;17.43;;;10.63;;
68583;SDS011;55557;49.220;11.150;2024-01-30T11:08:22;13.70;;;10.33;;
68583;SDS011;55557;49.220;11.150;2024-01-30T11:10:48;16.90;;;10.53;;
68583;SDS011;55557;49.220;11.150;2024-01-30T11:13:15;14.40;;;10.30;;
68583;SDS011;55557;49.220;11.150;2024-01-30T11:15:41;15.73;;;10.10;;
68583;SDS011;55557;49.220;11.150;2024-01-30T11:18:07;13.63;;;9.23;;
68583;SDS011;55557;49.220;11.150;2024-01-30T11:20:33;13.70;;;10.47;;
68583;SDS011;55557;49.220;11.150;2024-01-30T11:23:02;14.90;;;10.07;;
68583;SDS011;55557;49.220;11.150;2024-01-30T11:25:31;15.27;;;9.90;;
68583;SDS011;55557;49.220;11.150;2024-01-30T11:27:57;20.30;;;10.90;;
68583;SDS011;55557;49.220;11.150;2024-01-30T11:30:27;15.43;;;9.57;;
68583;SDS011;55557;49.220;11.150;2024-01-30T11:33:06;16.23;;;10.20;;
68583;SDS011;55557;49.220;11.150;2024-01-30T11:35:36;14.10;;;9.40;;
68583;SDS011;55557;49.220;11.150;2024-01-30T11:38:04;13.40;;;10.27;;
68583;SDS011;55557;49.220;11.150;2024-01-30T11:40:31;13.53;;;9.40;;
68583;SDS011;55557;49.220;11.150;2024-01-30T11:42:58;14.30;;;8.80;;
68583;SDS011;55557;49.220;11.150;2024-01-30T11:45:24;13.93;;;9.73;;
68583;SDS011;55557;49.220;11.150;2024-01-30T11:47:50;14.20;;;9.23;;
68583;SDS011;55557;49.220;11.150;2024-01-30T11:50:17;21.57;;;11.07;;
68583;SDS011;55557;49.220;11.150;2024-01-30T11:52:43;15.30;;;9.70;;
68583;SDS011;55557;49.220;11.150;2024-01-30T11:55:09;18.27;;;11.17;;
68583;SDS011;55557;49.220;11.150;2024-01-30T11:57:35;15.33;;;10.07;;
68583;SDS011;55557;49.220;11.150;2024-01-30T12:00:05;19.67;;;10.27;;
68583;SDS011;55557;49.220;11.150;2024-01-30T12:02:38;16.23;;;9.90;;
68583;SDS011;55557;49.220;11.150;2024-01-30T12:05:05;12.83;;;9.57;;
68583;SDS011;55557;49.220;11.150;2024-01-30T12:07:31;14.27;;;9.13;;
68583;SDS011;55557;49.220;11.150;2024-01-30T12:09:57;16.43;;;10.90;;
68583;SDS011;55557;49.220;11.150;2024-01-30T12:12:26;17.37;;;10.97;;
68583;SDS011;55557;49.220;11.150;2024-01-30T12:14:53;17.40;;;11.57;;
68583;SDS011;55557;49.220;11.150;2024-01-30T12:20:03;16.80;;;10.53;;
68583;SDS011;55557;49.220;11.150;2024-01-30T12:22:31;19.43;;;9.37;;
68583;SDS011;55557;49.220;11.150;2024-01-30T12:24:57;20.67;;;9.47;;
68583;SDS011;55557;49.220;11.150;2024-01-30T12:27:23;15.33;;;9.00;;
68583;SDS011;55557;49.220;11.150;2024-01-30T12:29:55;14.83;;;10.33;;
68583;SDS011;55557;49.220;11.150;2024-01-30T12:32:22;16.67;;;10.03;;
68583;SDS011;55557;49.220;11.150;2024-01-30T12:34:48;15.03;;;10.67;;
68583;SDS011;55557;49.220;11.150;2024-01-30T12:37:14;20.80;;;12.00;;
68583;SDS011;55557;49.220;11.150;2024-01-30T12:39:46;19.30;;;10.30;;
68583;SDS011;55557;49.220;11.150;2024-01-30T12:42:13;17.43;;;10.50;;
68583;SDS011;55557;49.220;11.150;2024-01-30T12:44:39;16.93;;;10.43;;
68583;SDS011;55557;49.220;11.150;2024-01-30T12:47:05;22.17;;;12.57;;
68583;SDS011;55557;49.220;11.150;2024-01-30T12:49:31;17.87;;;11.63;;
68583;SDS011;55557;49.220;11.150;2024-01-30T12:51:58;15.83;;;10.73;;
68583;SDS011;55557;49.220;11.150;2024-01-30T12:54:24;15.50;;;9.27;;
68583;SDS011;55557;49.220;11.150;2024-01-30T12:56:51;15.03;;;10.17;;
68583;SDS011;55557;49.220;11.150;2024-01-30T12:59:17;13.60;;;9.43;;
68583;SDS011;55557;49.220;11.150;2024-01-30T13:01:43;14.87;;;9.17;;
68583;SDS011;55557;49.220;11.150;2024-01-30T13:04:10;14.10;;;9.53;;
68583;SDS011;55557;49.220;11.150;2024-01-30T13:06:35;11.73;;;8.87;;
68583;SDS011;55557;49.220;11.150;2024-01-30T13:09:02;13.43;;;9.90;;
68583;SDS011;55557;49.220;11.150;2024-01-30T13:11:28;16.77;;;9.40;;
68583;SDS011;55557;49.220;11.150;2024-01-30T13:13:54;12.67;;;9.53;;
68583;SDS011;55557;49.220;11.150;2024-01-30T13:16:20;14.80;;;10.03;;
68583;SDS011;55557;49.220;11.150;2024-01-30T13:18:46;15.70;;;9.77;;
68583;SDS011;55557;49.220;11.150;2024-01-30T13:21:12;13.90;;;9.07;;
68583;SDS011;55557;49.220;11.150;2024-01-30T13:23:38;15.10;;;10.00;;
68583;SDS011;55557;49.220;11.150;2024-01-30T13:26:04;13.23;;;9.00;;
68583;SDS011;55557;49.220;11.150;2024-01-30T13:28:31;14.13;;;9.03;;
68583;SDS011;55557;49.220;11.150;2024-01-30T13:30:57;17.30;;;10.93;;
68583;SDS011;55557;49.220;11.150;2024-01-30T13:33:23;11.10;;;9.10;;
68583;SDS011;55557;49.220;11.150;2024-01-30T13:35:49;15.80;;;10.10;;
68583;SDS011;55557;49.220;11.150;2024-01-30T13:38:15;14.37;;;8.90;;
68583;SDS011;55557;49.220;11.150;2024-01-30T13:40:42;16.97;;;10.30;;
68583;SDS011;55557;49.220;11.150;2024-01-30T13:43:08;17.03;;;10.47;;
68583;SDS011;55557;49.220;11.150;2024-01-30T13:45:34;18.53;;;10.63;;
68583;SDS011;55557;49.220;11.150;2024-01-30T13:48:00;15.93;;;10.03;;
68583;SDS011;55557;49.220;11.150;2024-01-30T13:50:26;18.57;;;10.73;;
68583;SDS011;55557;49.220;11.150;2024-01-30T13:52:52;19.10;;;10.10;;
68583;SDS011;55557;49.220;11.150;2024-01-30T13:55:18;17.43;;;10.13;;
68583;SDS011;55557;49.220;11.150;2024-01-30T13:57:44;13.90;;;8.97;;
68583;SDS011;55557;49.220;11.150;2024-01-30T14:00:10;12.50;;;9.20;;
68583;SDS011;55557;49.220;11.150;2024-01-30T14:02:36;16.73;;;9.73;;
68583;SDS011;55557;49.220;11.150;2024-01-30T14:05:03;16.27;;;11.63;;
68583;SDS011;55557;49.220;11.150;2024-01-30T14:07:31;16.43;;;11.20;;
68583;SDS011;55557;49.220;11.150;2024-01-30T14:09:57;13.27;;;9.37;;
68583;SDS011;55557;49.220;11.150;2024-01-30T14:12:23;16.53;;;9.43;;
68583;SDS011;55557;49.220;11.150;2024-01-30T14:14:49;13.47;;;8.87;;
68583;SDS011;55557;49.220;11.150;2024-01-30T14:17:15;12.70;;;9.23;;
68583;SDS011;55557;49.220;11.150;2024-01-30T14:19:41;13.53;;;9.17;;
68583;SDS011;55557;49.220;11.150;2024-01-30T14:22:07;14.93;;;9.90;;